Time;durP1;ratioP1;P1;durP2;ratioP2;P2;SDS_P1;SDS_P2;PMS_P1;PMS_P2;Temp;Humidity;BMP_temperature;BMP_pressure;BME280_temperature;BME280_humidity;BME280_pressure;Samples;Min_cycle;Max_cycle;Signal;HPM_P1;HPM_P2
2022/02/17 00:00:40;;;;;;;;;;;6.30;99.90;;;;;;5059214;28;19912;-74
2022/02/17 00:03:06;;;;;;;;;;;6.30;99.90;;;;;;5052258;28;19909;-72
2022/02/17 00:05:32;;;;;;;;;;;6.30;99.90;;;;;;5059563;28;19916;-73
2022/02/17 00:07:59;;;;;;;;;;;6.30;99.90;;;;;;5072487;28;20020;-74
2022/02/17 00:10:42;;;;;;;;;;;6.20;99.90;;;;;;5058077;28;19920;-75
2022/02/17 00:13:16;;;;;;;;;;;6.20;99.90;;;;;;5066883;28;19928;-73
2022/02/17 00:15:43;;;;;;;;;;;6.00;99.90;;;;;;5062439;28;20349;-73
2022/02/17 00:18:21;;;;;;;;;;;6.00;99.90;;;;;;5070781;28;20023;-74
2022/02/17 00:20:50;;;;;;;;;;;6.00;99.90;;;;;;5052782;28;19971;-72
2022/02/17 00:23:16;;;;;;;;;;;6.10;99.90;;;;;;5069220;28;19913;-74
2022/02/17 00:25:41;;;;;;;;;;;6.20;99.90;;;;;;5059237;28;20426;-74
2022/02/17 00:28:07;;;;;;;;;;;6.20;99.90;;;;;;5056163;28;19949;-73
2022/02/17 00:30:32;;;;;;;;;;;6.20;99.90;;;;;;5067998;28;20003;-73
2022/02/17 00:32:58;;;;;;;;;;;6.10;99.90;;;;;;5062272;28;20389;-72
2022/02/17 00:35:24;;;;;;;;;;;6.00;99.90;;;;;;5066698;28;19920;-73
2022/02/17 00:37:49;;;;;;;;;;;6.10;99.90;;;;;;5078990;28;19932;-74
2022/02/17 00:40:15;;;;;;;;;;;6.10;99.90;;;;;;5083086;28;20015;-73
2022/02/17 00:42:41;;;;;;;;;;;6.10;99.90;;;;;;5069444;28;19917;-73
2022/02/17 00:45:07;;;;;;;;;;;6.20;99.90;;;;;;5062199;28;19920;-73
2022/02/17 00:47:32;;;;;;;;;;;6.20;99.90;;;;;;5060826;28;19909;-74
2022/02/17 00:49:58;;;;;;;;;;;6.10;99.90;;;;;;5077292;28;19913;-73
2022/02/17 00:52:24;;;;;;;;;;;6.00;99.90;;;;;;5080612;28;20390;-72
2022/02/17 00:54:49;;;;;;;;;;;6.10;99.90;;;;;;5059995;28;19916;-73
2022/02/17 00:57:15;;;;;;;;;;;6.00;99.90;;;;;;5079553;28;19916;-74
2022/02/17 00:59:42;;;;;;;;;;;5.90;99.90;;;;;;5067290;28;20327;-73
2022/02/17 01:02:08;;;;;;;;;;;6.00;99.90;;;;;;5071229;28;19917;-74
2022/02/17 01:04:34;;;;;;;;;;;6.00;99.90;;;;;;5064283;28;19912;-73
2022/02/17 01:07:00;;;;;;;;;;;6.10;99.90;;;;;;5078423;28;20062;-73
2022/02/17 01:09:25;;;;;;;;;;;6.20;99.90;;;;;;5065319;28;19925;-74
2022/02/17 01:11:51;;;;;;;;;;;6.20;99.90;;;;;;5060285;28;19923;-74
2022/02/17 01:14:17;;;;;;;;;;;6.30;99.90;;;;;;5061274;28;20351;-72
2022/02/17 01:16:42;;;;;;;;;;;6.30;99.90;;;;;;5076261;28;19952;-73
2022/02/17 01:19:08;;;;;;;;;;;6.30;99.90;;;;;;5065736;28;19916;-75
2022/02/17 01:21:34;;;;;;;;;;;6.40;99.90;;;;;;5070585;28;19924;-73
2022/02/17 01:23:59;;;;;;;;;;;6.40;99.90;;;;;;5079634;28;19917;-74
2022/02/17 01:26:25;;;;;;;;;;;6.50;99.90;;;;;;5075653;28;20490;-74
2022/02/17 01:28:50;;;;;;;;;;;6.50;99.90;;;;;;5074996;28;19912;-73
2022/02/17 01:31:18;;;;;;;;;;;6.60;99.90;;;;;;5056517;28;20389;-73
2022/02/17 01:33:44;;;;;;;;;;;6.60;99.90;;;;;;5064571;28;19916;-75
2022/02/17 01:36:10;;;;;;;;;;;6.60;99.90;;;;;;5073698;28;19913;-73
2022/02/17 01:38:37;;;;;;;;;;;6.60;99.90;;;;;;5066359;28;19924;-74
2022/02/17 01:41:06;;;;;;;;;;;6.60;99.90;;;;;;5060867;28;19921;-74
2022/02/17 01:43:32;;;;;;;;;;;6.70;99.90;;;;;;5074035;28;19919;-73
2022/02/17 01:45:59;;;;;;;;;;;6.80;99.90;;;;;;5073714;28;19938;-74
2022/02/17 01:48:24;;;;;;;;;;;6.80;99.90;;;;;;5079437;28;20423;-74
2022/02/17 01:50:50;;;;;;;;;;;6.80;99.90;;;;;;5057429;28;19995;-72
2022/02/17 01:53:16;;;;;;;;;;;6.90;99.90;;;;;;5061226;28;19921;-73
2022/02/17 01:55:44;;;;;;;;;;;6.80;99.90;;;;;;5060972;28;20008;-73
2022/02/17 01:58:09;;;;;;;;;;;6.90;99.90;;;;;;5075348;28;19913;-74
2022/02/17 02:00:35;;;;;;;;;;;7.00;99.90;;;;;;5062087;28;19982;-73
2022/02/17 02:03:01;;;;;;;;;;;7.00;99.90;;;;;;5074195;28;19916;-74
2022/02/17 02:05:26;;;;;;;;;;;6.90;99.90;;;;;;5055741;28;20469;-73
2022/02/17 02:07:52;;;;;;;;;;;6.90;99.90;;;;;;5062215;28;19912;-73
2022/02/17 02:10:17;;;;;;;;;;;6.80;99.90;;;;;;5060463;28;20066;-73
2022/02/17 02:12:43;;;;;;;;;;;6.80;99.90;;;;;;5052430;28;19912;-74
2022/02/17 02:15:10;;;;;;;;;;;6.90;99.90;;;;;;5075238;28;19922;-74
2022/02/17 02:17:37;;;;;;;;;;;6.90;99.90;;;;;;5075481;28;19914;-74
2022/02/17 02:20:03;;;;;;;;;;;6.90;99.90;;;;;;5094260;28;20011;-73
2022/02/17 02:22:30;;;;;;;;;;;7.00;99.90;;;;;;5075139;28;20056;-73
2022/02/17 02:24:59;;;;;;;;;;;7.00;99.90;;;;;;5093385;28;20032;-75
2022/02/17 02:27:25;;;;;;;;;;;7.00;99.90;;;;;;5072624;28;19912;-74
2022/02/17 02:29:50;;;;;;;;;;;7.20;99.90;;;;;;5078676;28;20385;-75
2022/02/17 02:32:16;;;;;;;;;;;7.20;99.90;;;;;;5063070;28;19912;-72
2022/02/17 02:34:42;;;;;;;;;;;7.10;99.90;;;;;;5080049;28;20397;-73
2022/02/17 02:37:08;;;;;;;;;;;7.20;99.90;;;;;;5066057;28;19952;-73
2022/02/17 02:39:36;;;;;;;;;;;7.30;99.90;;;;;;5074783;28;19921;-73
2022/02/17 02:42:04;;;;;;;;;;;7.30;99.90;;;;;;5058026;28;19924;-75
2022/02/17 02:44:30;;;;;;;;;;;7.30;99.90;;;;;;5065856;28;20016;-73
2022/02/17 02:46:55;;;;;;;;;;;7.30;99.90;;;;;;5072530;28;19933;-73
2022/02/17 02:49:21;;;;;;;;;;;7.30;99.90;;;;;;5075845;28;19920;-74
2022/02/17 02:51:47;;;;;;;;;;;7.30;99.90;;;;;;5061242;28;20507;-73
2022/02/17 02:54:12;;;;;;;;;;;7.20;99.90;;;;;;5075544;28;20294;-75
2022/02/17 02:56:38;;;;;;;;;;;7.30;99.90;;;;;;5059603;28;19919;-73
2022/02/17 02:59:04;;;;;;;;;;;7.30;99.90;;;;;;5056692;28;19956;-73
2022/02/17 03:01:29;;;;;;;;;;;7.30;99.90;;;;;;5076075;28;19931;-73
2022/02/17 03:03:55;;;;;;;;;;;7.30;99.90;;;;;;5060585;28;19931;-74
2022/02/17 03:06:21;;;;;;;;;;;7.30;99.90;;;;;;5073450;28;19925;-73
2022/02/17 03:08:46;;;;;;;;;;;7.30;99.90;;;;;;5069398;28;19912;-74
2022/02/17 03:11:12;;;;;;;;;;;7.40;99.90;;;;;;5067684;28;19912;-73
2022/02/17 03:13:38;;;;;;;;;;;7.40;99.90;;;;;;5065198;28;20218;-73
2022/02/17 03:16:03;;;;;;;;;;;7.30;99.90;;;;;;5068330;28;19913;-73
2022/02/17 03:18:29;;;;;;;;;;;7.30;99.90;;;;;;5052240;28;20359;-75
2022/02/17 03:20:55;;;;;;;;;;;7.40;99.90;;;;;;5056796;28;19916;-73
2022/02/17 03:23:20;;;;;;;;;;;7.30;99.90;;;;;;5063272;28;20387;-73
2022/02/17 03:25:46;;;;;;;;;;;7.30;99.90;;;;;;5062401;28;20535;-73
2022/02/17 03:28:13;;;;;;;;;;;7.20;99.90;;;;;;5061549;28;20318;-73
2022/02/17 03:30:39;;;;;;;;;;;7.20;99.90;;;;;;5058984;28;19953;-73
2022/02/17 03:33:04;;;;;;;;;;;7.20;99.90;;;;;;5078007;28;19939;-72
2022/02/17 03:35:30;;;;;;;;;;;7.10;99.90;;;;;;5064661;28;20361;-75
2022/02/17 03:37:56;;;;;;;;;;;7.20;99.90;;;;;;5057175;28;19908;-73
2022/02/17 03:40:21;;;;;;;;;;;7.30;99.90;;;;;;5072713;28;20311;-73
2022/02/17 03:42:47;;;;;;;;;;;7.30;99.90;;;;;;5080921;28;19979;-72
2022/02/17 03:45:13;;;;;;;;;;;7.30;99.90;;;;;;5055262;28;20990;-74
2022/02/17 03:47:38;;;;;;;;;;;7.30;99.90;;;;;;5054366;28;20377;-75
2022/02/17 03:50:05;;;;;;;;;;;7.40;99.90;;;;;;5075585;28;19962;-75
2022/02/17 03:52:31;;;;;;;;;;;7.50;99.90;;;;;;5056222;28;19920;-74
2022/02/17 03:54:56;;;;;;;;;;;7.50;99.90;;;;;;5076054;28;19917;-74
2022/02/17 03:57:22;;;;;;;;;;;7.40;99.90;;;;;;5063380;28;20608;-74
2022/02/17 03:59:48;;;;;;;;;;;7.40;99.90;;;;;;5053173;28;20016;-74
2022/02/17 04:02:13;;;;;;;;;;;7.40;99.90;;;;;;5058660;28;20400;-75
2022/02/17 04:04:39;;;;;;;;;;;7.40;99.90;;;;;;5074112;28;20385;-74
2022/02/17 04:07:05;;;;;;;;;;;7.40;99.90;;;;;;5073649;28;19947;-75
2022/02/17 04:09:30;;;;;;;;;;;7.40;99.90;;;;;;5063676;28;20326;-73
2022/02/17 04:11:56;;;;;;;;;;;7.40;99.90;;;;;;5067999;28;20000;-75
2022/02/17 04:14:22;;;;;;;;;;;7.40;99.90;;;;;;5058118;28;19955;-72
2022/02/17 04:16:47;;;;;;;;;;;7.40;99.90;;;;;;5076143;28;19966;-73
2022/02/17 04:19:13;;;;;;;;;;;7.30;99.90;;;;;;5057677;28;19942;-72
2022/02/17 04:21:39;;;;;;;;;;;7.40;99.90;;;;;;5065696;28;20302;-73
2022/02/17 04:24:05;;;;;;;;;;;7.40;99.90;;;;;;5067321;28;19916;-72
2022/02/17 04:26:30;;;;;;;;;;;7.40;99.90;;;;;;5077991;28;20386;-73
2022/02/17 04:28:59;;;;;;;;;;;7.40;99.90;;;;;;5060461;28;20236;-74
2022/02/17 04:31:25;;;;;;;;;;;7.40;99.90;;;;;;5061178;28;19923;-73
2022/02/17 04:33:51;;;;;;;;;;;7.40;99.90;;;;;;5057290;28;19912;-73
2022/02/17 04:36:17;;;;;;;;;;;7.40;99.90;;;;;;5063250;28;19989;-72
2022/02/17 04:38:43;;;;;;;;;;;7.40;99.90;;;;;;5072355;28;19919;-72
2022/02/17 04:43:53;;;;;;;;;;;7.50;99.90;;;;;;5058735;28;19927;-74
2022/02/17 04:46:19;;;;;;;;;;;7.50;99.90;;;;;;5062798;28;19951;-74
2022/02/17 04:48:57;;;;;;;;;;;7.40;99.90;;;;;;5076489;28;20033;-74
2022/02/17 04:51:23;;;;;;;;;;;7.30;99.90;;;;;;5063589;28;19912;-73
2022/02/17 04:53:49;;;;;;;;;;;7.30;99.90;;;;;;5059401;28;19913;-74
2022/02/17 04:56:15;;;;;;;;;;;7.30;99.90;;;;;;5079073;28;19916;-75
2022/02/17 04:58:41;;;;;;;;;;;7.40;99.90;;;;;;5066647;28;19916;-74
2022/02/17 05:01:07;;;;;;;;;;;7.50;99.90;;;;;;5079328;28;19995;-73
2022/02/17 05:03:33;;;;;;;;;;;7.40;99.90;;;;;;5064871;28;19916;-74
2022/02/17 05:05:59;;;;;;;;;;;7.40;99.90;;;;;;5060427;28;19920;-73
2022/02/17 05:08:25;;;;;;;;;;;7.40;99.90;;;;;;5058754;28;19936;-73
2022/02/17 05:10:51;;;;;;;;;;;7.50;99.90;;;;;;5078320;28;19920;-72
2022/02/17 05:13:17;;;;;;;;;;;7.40;99.90;;;;;;5072184;28;19912;-73
2022/02/17 05:15:43;;;;;;;;;;;7.30;99.90;;;;;;5069115;28;20329;-73
2022/02/17 05:18:08;;;;;;;;;;;7.30;99.90;;;;;;5066113;28;20152;-74
2022/02/17 05:20:34;;;;;;;;;;;7.20;99.90;;;;;;5058334;28;19995;-73
2022/02/17 05:23:01;;;;;;;;;;;7.20;99.90;;;;;;5061222;28;20517;-73
2022/02/17 05:25:27;;;;;;;;;;;7.10;99.90;;;;;;5060634;28;20444;-74
2022/02/17 05:27:52;;;;;;;;;;;7.00;99.90;;;;;;5062986;28;19963;-73
2022/02/17 05:30:18;;;;;;;;;;;7.10;99.90;;;;;;5061648;28;19916;-74
2022/02/17 05:32:44;;;;;;;;;;;7.10;99.90;;;;;;5073092;28;19924;-73
2022/02/17 05:35:11;;;;;;;;;;;7.10;99.90;;;;;;5056778;28;20427;-74
2022/02/17 05:37:37;;;;;;;;;;;7.10;99.90;;;;;;5058128;28;19967;-73
2022/02/17 05:40:04;;;;;;;;;;;7.20;99.90;;;;;;5061164;28;20440;-73
2022/02/17 05:42:30;;;;;;;;;;;7.30;99.90;;;;;;5055587;28;19921;-72
2022/02/17 05:44:55;;;;;;;;;;;7.40;99.90;;;;;;5058623;28;20393;-74
2022/02/17 05:47:21;;;;;;;;;;;7.40;99.90;;;;;;5064257;28;19924;-73
2022/02/17 05:49:46;;;;;;;;;;;7.40;99.90;;;;;;5052219;28;19920;-73
2022/02/17 05:52:12;;;;;;;;;;;7.50;99.90;;;;;;5077358;28;19913;-73
2022/02/17 05:54:38;;;;;;;;;;;7.40;99.90;;;;;;5058837;28;20370;-74
2022/02/17 05:57:03;;;;;;;;;;;7.40;99.90;;;;;;5079761;28;19912;-73
2022/02/17 05:59:29;;;;;;;;;;;7.40;99.90;;;;;;5056979;28;20000;-73
2022/02/17 06:01:55;;;;;;;;;;;7.40;99.90;;;;;;5071236;28;19958;-73
2022/02/17 06:04:20;;;;;;;;;;;7.40;99.90;;;;;;5067408;28;19920;-74
2022/02/17 06:06:46;;;;;;;;;;;7.40;99.90;;;;;;5057994;28;19913;-74
2022/02/17 06:09:11;;;;;;;;;;;7.40;99.90;;;;;;5060239;28;20297;-71
2022/02/17 06:11:37;;;;;;;;;;;7.30;99.90;;;;;;5064529;28;19930;-74
2022/02/17 06:14:03;;;;;;;;;;;7.30;99.90;;;;;;5075986;28;20362;-72
2022/02/17 06:16:28;;;;;;;;;;;7.30;99.90;;;;;;5070323;28;19912;-73
2022/02/17 06:18:54;;;;;;;;;;;7.20;99.90;;;;;;5081099;28;19965;-73
2022/02/17 06:21:20;;;;;;;;;;;7.20;99.90;;;;;;5067253;28;19924;-73
2022/02/17 06:23:45;;;;;;;;;;;7.10;99.90;;;;;;5080226;28;20003;-73
2022/02/17 06:26:11;;;;;;;;;;;7.10;99.90;;;;;;5060429;28;19920;-73
2022/02/17 06:28:36;;;;;;;;;;;7.10;99.90;;;;;;5059926;28;19913;-73
2022/02/17 06:31:02;;;;;;;;;;;7.20;99.90;;;;;;5067343;28;19982;-73
2022/02/17 06:33:28;;;;;;;;;;;7.30;99.90;;;;;;5059912;28;19956;-73
2022/02/17 06:35:54;;;;;;;;;;;7.30;99.90;;;;;;5057743;28;19951;-74
2022/02/17 06:38:19;;;;;;;;;;;7.30;99.90;;;;;;5056504;28;19966;-73
2022/02/17 06:40:45;;;;;;;;;;;7.40;99.90;;;;;;5059859;28;19920;-72
2022/02/17 06:43:12;;;;;;;;;;;7.30;99.90;;;;;;5055863;28;20604;-73
2022/02/17 06:45:38;;;;;;;;;;;7.30;99.90;;;;;;5058726;28;19913;-74
2022/02/17 06:48:05;;;;;;;;;;;7.30;99.90;;;;;;5071184;28;19936;-73
2022/02/17 06:50:30;;;;;;;;;;;7.30;99.90;;;;;;5063007;28;19917;-73
2022/02/17 06:52:56;;;;;;;;;;;7.40;99.90;;;;;;5052318;28;19974;-73
2022/02/17 06:55:22;;;;;;;;;;;7.30;99.90;;;;;;5069660;28;20224;-73
2022/02/17 06:57:47;;;;;;;;;;;7.30;99.90;;;;;;5057502;28;20591;-74
2022/02/17 07:00:13;;;;;;;;;;;7.30;99.90;;;;;;5054774;28;20405;-73
2022/02/17 07:02:39;;;;;;;;;;;7.40;99.90;;;;;;5065982;28;20011;-74
2022/02/17 07:05:04;;;;;;;;;;;7.50;99.90;;;;;;5055656;28;19912;-73
2022/02/17 07:07:32;;;;;;;;;;;7.50;99.90;;;;;;5067911;28;19943;-73
2022/02/17 07:09:57;;;;;;;;;;;7.50;99.90;;;;;;5051133;28;19913;-73
2022/02/17 07:12:23;;;;;;;;;;;7.60;99.90;;;;;;5060980;28;19913;-74
2022/02/17 07:14:51;;;;;;;;;;;7.60;99.90;;;;;;5081251;28;19992;-73
2022/02/17 07:17:19;;;;;;;;;;;7.60;99.90;;;;;;5056249;28;19919;-73
2022/02/17 07:19:44;;;;;;;;;;;7.60;99.90;;;;;;5056068;28;19917;-72
2022/02/17 07:22:10;;;;;;;;;;;7.70;99.90;;;;;;5061005;28;20027;-73
2022/02/17 07:24:36;;;;;;;;;;;7.80;99.90;;;;;;5078359;28;19921;-73
2022/02/17 07:27:02;;;;;;;;;;;7.90;99.90;;;;;;5054978;28;19909;-72
2022/02/17 07:29:29;;;;;;;;;;;7.90;99.90;;;;;;5070035;28;19940;-73
2022/02/17 07:31:55;;;;;;;;;;;8.10;99.90;;;;;;5065932;28;20164;-74
2022/02/17 07:34:20;;;;;;;;;;;8.20;99.90;;;;;;5065667;28;19963;-74
2022/02/17 07:36:46;;;;;;;;;;;8.30;99.90;;;;;;5055392;28;19996;-72
2022/02/17 07:39:12;;;;;;;;;;;8.40;99.90;;;;;;5059843;28;20004;-73
2022/02/17 07:41:37;;;;;;;;;;;8.60;99.90;;;;;;5072581;28;20026;-74
2022/02/17 07:44:07;;;;;;;;;;;8.60;99.90;;;;;;5062312;28;19916;-73
2022/02/17 07:46:33;;;;;;;;;;;8.50;99.90;;;;;;5054232;28;19912;-74
2022/02/17 07:49:00;;;;;;;;;;;8.50;99.90;;;;;;5074452;28;19913;-74
2022/02/17 07:51:26;;;;;;;;;;;8.70;99.90;;;;;;5071275;28;19912;-73
2022/02/17 07:53:52;;;;;;;;;;;8.70;99.90;;;;;;5061015;28;19913;-74
2022/02/17 07:56:17;;;;;;;;;;;8.80;99.90;;;;;;5053533;28;19909;-73
2022/02/17 07:58:44;;;;;;;;;;;8.70;99.90;;;;;;5071817;28;19913;-73
2022/02/17 08:01:09;;;;;;;;;;;8.80;99.90;;;;;;5054854;28;19915;-73
2022/02/17 08:03:36;;;;;;;;;;;8.60;99.90;;;;;;5065551;28;19917;-73
2022/02/17 08:06:02;;;;;;;;;;;8.50;99.90;;;;;;5060142;28;20090;-74
2022/02/17 08:08:27;;;;;;;;;;;8.60;99.90;;;;;;5059518;28;19951;-73
2022/02/17 08:10:53;;;;;;;;;;;8.70;99.90;;;;;;5065786;28;20371;-73
2022/02/17 08:13:19;;;;;;;;;;;8.80;99.90;;;;;;5056323;28;19909;-73
2022/02/17 08:15:45;;;;;;;;;;;8.80;99.90;;;;;;5057649;28;20282;-73
2022/02/17 08:18:10;;;;;;;;;;;8.90;99.90;;;;;;5080570;28;19923;-73
2022/02/17 08:20:36;;;;;;;;;;;9.00;99.90;;;;;;5085033;28;20339;-74
2022/02/17 08:23:04;;;;;;;;;;;8.90;99.90;;;;;;5097375;28;20522;-74
2022/02/17 08:25:32;;;;;;;;;;;9.00;99.90;;;;;;5071517;28;20007;-73
2022/02/17 08:27:57;;;;;;;;;;;9.10;99.90;;;;;;5075115;28;19916;-73
2022/02/17 08:30:23;;;;;;;;;;;9.00;99.90;;;;;;5056262;28;19912;-73
2022/02/17 08:32:53;;;;;;;;;;;8.90;99.90;;;;;;5072664;28;19928;-72
2022/02/17 08:35:18;;;;;;;;;;;9.00;99.90;;;;;;5057825;28;20295;-72
2022/02/17 08:37:44;;;;;;;;;;;9.10;99.90;;;;;;5067920;28;19991;-73
2022/02/17 08:40:11;;;;;;;;;;;9.10;99.90;;;;;;5057481;28;19909;-72
2022/02/17 08:42:38;;;;;;;;;;;9.20;99.90;;;;;;5055780;28;19917;-72
2022/02/17 08:45:04;;;;;;;;;;;9.40;99.90;;;;;;5055166;28;19915;-68
2022/02/17 08:47:30;;;;;;;;;;;9.50;99.90;;;;;;5053877;28;19920;-69
2022/02/17 08:49:55;;;;;;;;;;;9.60;99.90;;;;;;5069620;28;20367;-69
2022/02/17 08:52:21;;;;;;;;;;;9.90;99.90;;;;;;5075040;28;19920;-69
2022/02/17 08:54:47;;;;;;;;;;;10.00;99.90;;;;;;5082679;28;20569;-68
2022/02/17 08:57:13;;;;;;;;;;;10.10;99.90;;;;;;5063431;28;19943;-68
2022/02/17 08:59:38;;;;;;;;;;;10.10;99.90;;;;;;5093896;28;19909;-69
2022/02/17 09:02:04;;;;;;;;;;;10.30;99.90;;;;;;5080189;28;19950;-69
2022/02/17 09:04:32;;;;;;;;;;;10.30;99.90;;;;;;5068446;28;19923;-68
2022/02/17 09:06:58;;;;;;;;;;;10.60;99.90;;;;;;5076749;28;20015;-69
2022/02/17 09:09:24;;;;;;;;;;;10.70;99.90;;;;;;5064905;28;20007;-68
2022/02/17 09:11:49;;;;;;;;;;;10.90;99.90;;;;;;5067731;28;20031;-67
2022/02/17 09:14:15;;;;;;;;;;;11.00;99.90;;;;;;5087535;28;20012;-66
2022/02/17 09:16:41;;;;;;;;;;;11.20;99.90;;;;;;5059140;28;19927;-67
2022/02/17 09:19:06;;;;;;;;;;;11.40;99.90;;;;;;5067874;28;19923;-68
2022/02/17 09:21:32;;;;;;;;;;;11.50;99.90;;;;;;5063387;28;19936;-68
2022/02/17 09:23:58;;;;;;;;;;;11.50;99.90;;;;;;5071731;28;20000;-66
2022/02/17 09:26:23;;;;;;;;;;;11.60;99.90;;;;;;5065768;28;20003;-69
2022/02/17 09:28:49;;;;;;;;;;;11.70;99.90;;;;;;5087829;28;19912;-69
2022/02/17 09:31:18;;;;;;;;;;;11.70;99.90;;;;;;5063346;28;19913;-69
2022/02/17 09:33:46;;;;;;;;;;;11.70;99.90;;;;;;5089681;28;19992;-69
2022/02/17 09:36:11;;;;;;;;;;;11.80;99.90;;;;;;5083834;28;20007;-68
2022/02/17 09:38:37;;;;;;;;;;;11.80;99.90;;;;;;5070072;28;19975;-67
2022/02/17 09:41:06;;;;;;;;;;;11.90;99.90;;;;;;5073948;28;19962;-69
2022/02/17 09:43:32;;;;;;;;;;;12.00;99.90;;;;;;5057281;28;19913;-67
2022/02/17 09:45:58;;;;;;;;;;;12.10;99.90;;;;;;5062816;28;19973;-68
2022/02/17 09:48:24;;;;;;;;;;;12.00;99.90;;;;;;5073045;28;19956;-70
2022/02/17 09:50:50;;;;;;;;;;;11.90;99.90;;;;;;5077224;28;19924;-68
2022/02/17 09:53:16;;;;;;;;;;;12.10;99.90;;;;;;5070073;28;20042;-68
2022/02/17 09:55:42;;;;;;;;;;;12.30;99.90;;;;;;5071246;28;19908;-68
2022/02/17 09:58:08;;;;;;;;;;;12.60;99.90;;;;;;5051733;28;20323;-68
2022/02/17 10:00:35;;;;;;;;;;;12.70;99.90;;;;;;5058164;28;19966;-68
2022/02/17 10:03:19;;;;;;;;;;;12.70;99.90;;;;;;5059027;28;20390;-68
2022/02/17 10:06:02;;;;;;;;;;;12.80;99.90;;;;;;5051196;28;19916;-67
2022/02/17 10:08:27;;;;;;;;;;;13.00;99.90;;;;;;5076764;28;20591;-70
2022/02/17 10:10:53;;;;;;;;;;;13.10;99.90;;;;;;5069315;28;19996;-67
2022/02/17 10:13:18;;;;;;;;;;;13.10;99.90;;;;;;5068208;28;20366;-68
2022/02/17 10:15:50;;;;;;;;;;;13.20;99.90;;;;;;5076651;28;19916;-69
2022/02/17 10:18:18;;;;;;;;;;;13.10;99.90;;;;;;5063151;28;19927;-68
2022/02/17 10:21:12;;;;;;;;;;;13.10;99.90;;;;;;5064241;28;19913;-68
2022/02/17 10:23:48;;;;;;;;;;;13.10;99.90;;;;;;5055574;28;19917;-68
2022/02/17 10:26:13;;;;;;;;;;;13.10;99.90;;;;;;5066641;28;19927;-66
2022/02/17 10:28:44;;;;;;;;;;;13.10;99.90;;;;;;5058867;28;19916;-67
2022/02/17 10:31:22;;;;;;;;;;;13.20;99.90;;;;;;5064444;28;20062;-68
2022/02/17 10:33:52;;;;;;;;;;;13.20;99.90;;;;;;5085051;28;19919;-68
2022/02/17 10:36:31;;;;;;;;;;;13.20;99.90;;;;;;5063407;28;19920;-68
2022/02/17 10:39:19;;;;;;;;;;;13.40;99.90;;;;;;5068508;28;19913;-68
2022/02/17 10:41:51;;;;;;;;;;;13.50;99.90;;;;;;5073450;28;19917;-70
2022/02/17 10:44:17;;;;;;;;;;;13.60;99.90;;;;;;5059363;28;19916;-67
2022/02/17 10:46:43;;;;;;;;;;;13.80;99.90;;;;;;5057056;28;19942;-69
2022/02/17 10:49:19;;;;;;;;;;;13.70;99.90;;;;;;5056286;28;19912;-68
2022/02/17 10:51:45;;;;;;;;;;;13.80;99.90;;;;;;5058705;28;19913;-69
2022/02/17 10:54:11;;;;;;;;;;;13.70;99.90;;;;;;5064343;28;19952;-70
2022/02/17 10:56:38;;;;;;;;;;;13.60;99.90;;;;;;5070665;28;20005;-67
2022/02/17 11:00:00;;;;;;;;;;;13.50;99.90;;;;;;5060783;28;19920;-67
2022/02/17 11:01:54;;;;;;;;;;;13.60;99.90;;;;;;5057770;28;19961;-69
2022/02/17 11:04:20;;;;;;;;;;;13.60;99.90;;;;;;5060040;28;19996;-67
2022/02/17 11:06:46;;;;;;;;;;;13.40;99.90;;;;;;5058356;28;20055;-68
2022/02/17 11:09:12;;;;;;;;;;;13.20;99.90;;;;;;5056978;28;20290;-68
2022/02/17 11:11:38;;;;;;;;;;;13.10;99.90;;;;;;5079657;28;20007;-70
2022/02/17 11:14:03;;;;;;;;;;;13.20;99.90;;;;;;5054454;28;20007;-70
2022/02/17 11:16:29;;;;;;;;;;;13.20;99.90;;;;;;5059514;28;20013;-66
2022/02/17 11:18:55;;;;;;;;;;;13.10;99.90;;;;;;5058040;28;19925;-66
2022/02/17 11:21:21;;;;;;;;;;;13.20;99.90;;;;;;5060680;28;19920;-67
2022/02/17 11:23:46;;;;;;;;;;;13.20;99.90;;;;;;5059556;28;20367;-68
2022/02/17 11:26:26;;;;;;;;;;;13.20;99.90;;;;;;5054240;28;19919;-70
2022/02/17 11:28:52;;;;;;;;;;;13.10;99.90;;;;;;5071245;28;19970;-70
2022/02/17 11:31:17;;;;;;;;;;;13.20;99.90;;;;;;5059833;28;19917;-66
2022/02/17 11:33:58;;;;;;;;;;;13.40;99.90;;;;;;5054021;28;20307;-67
2022/02/17 11:36:27;;;;;;;;;;;13.40;99.90;;;;;;5056100;28;19979;-65
2022/02/17 11:38:57;;;;;;;;;;;13.30;99.90;;;;;;5054278;28;20300;-69
2022/02/17 11:41:27;;;;;;;;;;;13.40;99.90;;;;;;5054579;28;19913;-69
2022/02/17 11:43:53;;;;;;;;;;;13.30;99.90;;;;;;5076156;28;19917;-70
2022/02/17 11:46:41;;;;;;;;;;;13.40;99.90;;;;;;5060795;28;19920;-70
2022/02/17 11:49:10;;;;;;;;;;;13.70;99.90;;;;;;5050030;28;19966;-67
2022/02/17 11:51:36;;;;;;;;;;;14.00;99.90;;;;;;5075772;28;20003;-68
2022/02/17 11:54:15;;;;;;;;;;;14.10;99.90;;;;;;5053877;28;20088;-70
2022/02/17 11:56:50;;;;;;;;;;;14.00;99.90;;;;;;5063893;28;19923;-66
2022/02/17 11:59:23;;;;;;;;;;;14.10;99.90;;;;;;5056255;28;19939;-66
2022/02/17 12:01:50;;;;;;;;;;;14.20;99.90;;;;;;5069871;28;19924;-69
2022/02/17 12:04:26;;;;;;;;;;;14.30;99.90;;;;;;5055007;28;19923;-67
2022/02/17 12:07:06;;;;;;;;;;;14.30;99.90;;;;;;5076660;28;19957;-69
2022/02/17 12:09:41;;;;;;;;;;;14.10;99.90;;;;;;5054711;28;19909;-71
2022/02/17 12:12:13;;;;;;;;;;;14.00;99.90;;;;;;5054886;28;19920;-68
2022/02/17 12:14:38;;;;;;;;;;;14.00;99.90;;;;;;5056061;28;20000;-68
2022/02/17 12:17:05;;;;;;;;;;;13.90;99.90;;;;;;5051568;28;20394;-66
2022/02/17 12:19:33;;;;;;;;;;;13.80;99.90;;;;;;5050571;28;20330;-68
2022/02/17 12:22:06;;;;;;;;;;;13.90;99.90;;;;;;5064543;28;19916;-66
2022/02/17 12:24:31;;;;;;;;;;;14.10;99.90;;;;;;5065460;28;19909;-66
2022/02/17 12:26:57;;;;;;;;;;;14.00;99.90;;;;;;5068059;28;19913;-69
2022/02/17 12:29:26;;;;;;;;;;;13.80;99.90;;;;;;5059062;28;19919;-67
2022/02/17 12:31:52;;;;;;;;;;;13.50;99.90;;;;;;5069141;28;19917;-66
2022/02/17 12:34:18;;;;;;;;;;;13.40;99.90;;;;;;5060892;28;19913;-70
2022/02/17 12:36:44;;;;;;;;;;;13.30;99.90;;;;;;5059444;28;19974;-68
2022/02/17 12:39:09;;;;;;;;;;;13.00;99.90;;;;;;5066764;28;20008;-68
2022/02/17 12:41:35;;;;;;;;;;;13.00;99.90;;;;;;5054347;28;19931;-67
2022/02/17 12:44:01;;;;;;;;;;;12.80;99.90;;;;;;5055657;28;20321;-70
2022/02/17 12:46:27;;;;;;;;;;;12.60;99.90;;;;;;5083986;28;19912;-67
2022/02/17 12:48:53;;;;;;;;;;;12.50;99.90;;;;;;5055873;28;19921;-66
2022/02/17 12:51:22;;;;;;;;;;;12.40;99.90;;;;;;5069673;28;20003;-67
2022/02/17 12:53:50;;;;;;;;;;;12.10;99.90;;;;;;5060502;28;19935;-67
2022/02/17 12:56:22;;;;;;;;;;;11.90;99.90;;;;;;5057767;28;19916;-70
2022/02/17 12:58:48;;;;;;;;;;;11.70;99.90;;;;;;5079982;28;20318;-69
2022/02/17 13:01:21;;;;;;;;;;;11.70;99.90;;;;;;5063778;28;20414;-69
2022/02/17 13:03:48;;;;;;;;;;;11.70;99.90;;;;;;5081873;28;19916;-66
2022/02/17 13:06:22;;;;;;;;;;;11.70;99.90;;;;;;5057590;28;19913;-68
2022/02/17 13:08:59;;;;;;;;;;;11.70;99.90;;;;;;5062010;28;19921;-70
2022/02/17 13:11:29;;;;;;;;;;;11.50;99.90;;;;;;5059782;28;19940;-67
2022/02/17 13:14:08;;;;;;;;;;;11.30;99.90;;;;;;5075985;28;20341;-68
2022/02/17 13:16:36;;;;;;;;;;;11.00;99.90;;;;;;5065506;28;19913;-67
2022/02/17 13:19:02;;;;;;;;;;;10.90;99.90;;;;;;5064236;28;19916;-69
2022/02/17 13:21:28;;;;;;;;;;;11.00;99.90;;;;;;5062321;28;20019;-66
2022/02/17 13:24:08;;;;;;;;;;;10.80;99.90;;;;;;5059214;28;19927;-68
2022/02/17 13:26:34;;;;;;;;;;;10.80;99.90;;;;;;5077976;28;20441;-69
2022/02/17 13:29:01;;;;;;;;;;;10.70;99.90;;;;;;5063276;28;19967;-68
2022/02/17 13:31:29;;;;;;;;;;;10.60;99.90;;;;;;5068719;28;20026;-66
2022/02/17 13:34:23;;;;;;;;;;;10.60;99.90;;;;;;5057071;28;19912;-67
2022/02/17 13:36:49;;;;;;;;;;;10.40;99.90;;;;;;5059358;28;20362;-67
2022/02/17 13:39:18;;;;;;;;;;;10.00;99.90;;;;;;5064793;28;19913;-65
2022/02/17 13:41:57;;;;;;;;;;;9.90;99.90;;;;;;5058478;28;19916;-68
2022/02/17 13:44:30;;;;;;;;;;;9.80;99.90;;;;;;5079165;28;20031;-67
2022/02/17 13:46:55;;;;;;;;;;;9.60;99.90;;;;;;5059380;28;19999;-69
2022/02/17 13:49:21;;;;;;;;;;;9.60;99.90;;;;;;5075198;28;19974;-67
2022/02/17 13:51:47;;;;;;;;;;;9.70;99.90;;;;;;5059108;28;19913;-66
2022/02/17 13:54:13;;;;;;;;;;;9.80;99.90;;;;;;5063870;28;19974;-68
2022/02/17 13:56:39;;;;;;;;;;;9.80;99.90;;;;;;5078291;28;19920;-67
2022/02/17 13:59:04;;;;;;;;;;;9.90;99.90;;;;;;5074277;28;20331;-69
2022/02/17 14:01:36;;;;;;;;;;;9.80;99.90;;;;;;5082349;28;20011;-68
2022/02/17 14:04:02;;;;;;;;;;;9.60;99.90;;;;;;5052466;28;20378;-67
2022/02/17 14:06:28;;;;;;;;;;;9.40;99.90;;;;;;5056078;28;19961;-68
2022/02/17 14:08:54;;;;;;;;;;;9.50;99.90;;;;;;5062157;28;19946;-68
2022/02/17 14:11:20;;;;;;;;;;;9.60;99.90;;;;;;5054270;28;20007;-68
2022/02/17 14:13:45;;;;;;;;;;;9.70;99.90;;;;;;5057249;28;19917;-68
2022/02/17 14:16:11;;;;;;;;;;;9.60;99.90;;;;;;5055673;28;19924;-70
2022/02/17 14:18:37;;;;;;;;;;;9.60;99.90;;;;;;5071115;28;19917;-70
2022/02/17 14:21:03;;;;;;;;;;;9.50;99.90;;;;;;5055983;28;19913;-70
2022/02/17 14:23:29;;;;;;;;;;;9.50;99.90;;;;;;5074070;28;20020;-69
2022/02/17 14:25:55;;;;;;;;;;;9.60;99.90;;;;;;5056125;28;19976;-69
2022/02/17 14:28:21;;;;;;;;;;;9.60;99.90;;;;;;5060283;28;19924;-71